Gilbert, MN

2:51 PM CDT on August 30, 2014 (GMT -0500)
Eveleth-Virginia Municipal | Change Station
CLOSE
Current Station
Airport
Location: Eveleth,
Elevation: 1378 ft
Nearby Weather Stations

Elev 1378 ft 47.43 °N, 92.50 °W | Updated 20 minutes ago

Overcast
Overcast
63 °F
Feels Like 63 °F
N
7
Wind Variable Wind from NNE

Today
High -- | Low -- °F
--% Chance of Precip.
Yesterday
High -- | Low -- °F
Precip. -- in
6:25 AM 7:53 PM
Waxing Crescent, 24% visible
Pressure 29.91 in
Visibility 10.0 miles
Clouds Overcast 1500 ft
Dew Point 55 °F
Humidity 77%
Rainfall 0.00 in
Snow Depth Not available.
UV 2 out of 12
Pollen 5.30 out of 12
Air Quality Not available.
Flu Activity Not available.
METAR KEVM 301931Z AUTO 03006KT 10SM OVC015 17/13 A2991 RMK AO2

More Conditions Fewer Conditions

Pressure 29.91 in
Visibility 10.0 miles
Clouds Overcast 1500 ft
Dew Point 55 °F
Humidity 77%
Rainfall 0.00 in
Snow Depth Not available.
UV 2 out of 12
Pollen 5.30 out of 12
Air Quality Not available.
Flu Activity Not available.
METAR KEVM 301931Z AUTO 03006KT 10SM OVC015 17/13 A2991 RMK AO2

More Conditions Fewer Conditions

10-Day Weather Forecast

Almanac

Astronomy

Aug. 30, 2014 Rise Set
Actual Time 6:25 AM CDT 7:53 PM CDT
Civil Twilight 5:53 AM CDT 8:25 PM CDT
Nautical Twilight 5:14 AM CDT 9:04 PM CDT
Astronomical Twilight 4:32 AM CDT 9:45 PM CDT
Moon 11:36 AM CDT 10:04 PM CDT
Length of Visible Light 14h 31m
Length of Day
13h 27m
Tomorrow will be 3m 17s shorter.
Waxing Crescent, 24% of the Moon is Illuminated
Today
Waxing Crescent
Sep 2
First Quarter
Sep 8
Full
Sep 15
Last Quarter
Sep 24
New

Today's Extremes

State Highs State Lows

Community

WunderPhotos

Upload Photos

1,748,614 photos uploaded!

WunderBlogs® & News

Nearby

Snow Depth

Station Depth Elevation
No new snow has been reported.

Earthquake Activity

City Distance Mag. Time & Date
No recent earthquake activity has been reported nearby.
Minimum magnitude displayed is 2.5.

Coastal Water Temperatures

Place Temperature
No Stations Reporting

Nearby Weather Stations